Strona główna
METAR-TAF:

METAR-TAF

Lotnisko :

Penn Valley Airport

Selinsgrove, Pensylwania, Stany Zjednoczone

Szerokość geograficzna: 40-49-09N, Długość geograficzna: 076-51-58W, wysokość: 137 m

Aktualna obserwacja pogody

Raport powstał 18 minut temu, godzina 10:53 UTC
Cisza
Temperatura 18°C
Wilgotność 100%
Ciśnienie 1014 hPa
Widzialność: 4.8 km
Mało chmury na wysokości 700 ft
Zachmurzenie całkowite na wysokości 2100 ft
zamglenie

METAR: KSEG 191053Z AUTO 00000KT 3SM BR FEW007 OVC021 18/18 A2995 RMK AO2 RAE51 SLP141 P0004 T01830178

czas: 07:11 (11:11 UTC)


TAF: brakujący

Obserwacja i prognoza pogody dla ponad 4000 lotnisk (raport METAR i TAF).

Dostępne stacje oznaczono żółtymi i czerwonymi punktami na mapie.

Najedź kursorem aby zobaczyć nazwę stacji.

Kliknij aby zobaczyć obserwacje i prognozy pogody.

Aby zmienić mapę: kliknij na zielony przycisk z czarnym krzyżykiem, aby powiększyć; na zielony przycisk z myślnikiem, aby pomniejszyć; na zielone strzałki, aby przejść do map sąsiednich.


METAR-TAF: